sensor_id;sensor_type;location;lat;lon;timestamp;P1;durP1;ratioP1;P2;durP2;ratioP2
51298;SDS011;37382;45.192;9.790;2024-02-28T00:01:20;3.45;;;1.65;;
51298;SDS011;37382;45.192;9.790;2024-02-28T00:03:48;2.40;;;1.50;;
51298;SDS011;37382;45.192;9.790;2024-02-28T00:06:16;2.58;;;1.50;;
51298;SDS011;37382;45.192;9.790;2024-02-28T00:08:45;1.85;;;1.50;;
51298;SDS011;37382;45.192;9.790;2024-02-28T00:11:13;2.13;;;1.70;;
51298;SDS011;37382;45.192;9.790;2024-02-28T00:13:40;2.05;;;1.77;;
51298;SDS011;37382;45.192;9.790;2024-02-28T00:16:08;2.20;;;2.00;;
51298;SDS011;37382;45.192;9.790;2024-02-28T00:18:36;1.60;;;1.50;;
51298;SDS011;37382;45.192;9.790;2024-02-28T00:21:03;3.10;;;1.50;;
51298;SDS011;37382;45.192;9.790;2024-02-28T00:23:31;2.13;;;1.55;;
51298;SDS011;37382;45.192;9.790;2024-02-28T00:26:02;2.67;;;1.80;;
51298;SDS011;37382;45.192;9.790;2024-02-28T00:28:30;2.03;;;1.70;;
51298;SDS011;37382;45.192;9.790;2024-02-28T00:30:58;2.17;;;1.10;;
51298;SDS011;37382;45.192;9.790;2024-02-28T00:33:25;2.40;;;1.20;;
51298;SDS011;37382;45.192;9.790;2024-02-28T00:35:53;2.33;;;1.00;;
51298;SDS011;37382;45.192;9.790;2024-02-28T00:38:20;3.65;;;1.20;;
51298;SDS011;37382;45.192;9.790;2024-02-28T00:40:48;1.27;;;1.10;;
51298;SDS011;37382;45.192;9.790;2024-02-28T00:43:15;1.10;;;1.00;;
51298;SDS011;37382;45.192;9.790;2024-02-28T00:45:43;1.38;;;0.82;;
51298;SDS011;37382;45.192;9.790;2024-02-28T00:48:11;1.40;;;0.90;;
51298;SDS011;37382;45.192;9.790;2024-02-28T00:50:38;1.27;;;1.00;;
51298;SDS011;37382;45.192;9.790;2024-02-28T00:53:06;2.10;;;1.15;;
51298;SDS011;37382;45.192;9.790;2024-02-28T00:55:33;0.80;;;0.80;;
51298;SDS011;37382;45.192;9.790;2024-02-28T00:58:01;1.63;;;1.00;;
51298;SDS011;37382;45.192;9.790;2024-02-28T01:00:29;1.10;;;1.00;;
51298;SDS011;37382;45.192;9.790;2024-02-28T01:02:56;1.05;;;0.98;;
51298;SDS011;37382;45.192;9.790;2024-02-28T01:05:23;4.18;;;1.10;;
51298;SDS011;37382;45.192;9.790;2024-02-28T01:07:51;1.48;;;1.02;;
51298;SDS011;37382;45.192;9.790;2024-02-28T01:10:18;3.33;;;1.00;;
51298;SDS011;37382;45.192;9.790;2024-02-28T01:12:45;1.20;;;1.10;;
51298;SDS011;37382;45.192;9.790;2024-02-28T01:15:13;1.42;;;1.20;;
51298;SDS011;37382;45.192;9.790;2024-02-28T01:17:40;1.90;;;1.40;;
51298;SDS011;37382;45.192;9.790;2024-02-28T01:20:08;2.20;;;1.10;;
51298;SDS011;37382;45.192;9.790;2024-02-28T01:22:36;3.53;;;1.10;;
51298;SDS011;37382;45.192;9.790;2024-02-28T01:25:03;2.22;;;1.08;;
51298;SDS011;37382;45.192;9.790;2024-02-28T01:27:31;1.20;;;0.90;;
51298;SDS011;37382;45.192;9.790;2024-02-28T01:29:59;2.20;;;1.35;;
51298;SDS011;37382;45.192;9.790;2024-02-28T01:32:27;4.28;;;1.05;;
51298;SDS011;37382;45.192;9.790;2024-02-28T01:34:56;2.72;;;1.38;;
51298;SDS011;37382;45.192;9.790;2024-02-28T01:37:24;3.80;;;1.50;;
51298;SDS011;37382;45.192;9.790;2024-02-28T01:39:51;1.30;;;1.20;;
51298;SDS011;37382;45.192;9.790;2024-02-28T01:42:19;3.17;;;1.70;;
51298;SDS011;37382;45.192;9.790;2024-02-28T01:44:47;1.90;;;1.60;;
51298;SDS011;37382;45.192;9.790;2024-02-28T01:47:18;1.77;;;1.67;;
51298;SDS011;37382;45.192;9.790;2024-02-28T01:49:45;2.17;;;1.50;;
51298;SDS011;37382;45.192;9.790;2024-02-28T01:52:13;1.55;;;1.40;;
51298;SDS011;37382;45.192;9.790;2024-02-28T01:54:42;2.42;;;1.70;;
51298;SDS011;37382;45.192;9.790;2024-02-28T01:57:10;2.20;;;1.58;;
51298;SDS011;37382;45.192;9.790;2024-02-28T01:59:38;1.50;;;1.23;;
51298;SDS011;37382;45.192;9.790;2024-02-28T02:02:05;2.08;;;1.23;;
51298;SDS011;37382;45.192;9.790;2024-02-28T02:04:33;1.15;;;1.10;;
51298;SDS011;37382;45.192;9.790;2024-02-28T02:07:01;2.83;;;1.20;;
51298;SDS011;37382;45.192;9.790;2024-02-28T02:09:28;2.03;;;1.40;;
51298;SDS011;37382;45.192;9.790;2024-02-28T02:11:56;1.55;;;1.30;;
51298;SDS011;37382;45.192;9.790;2024-02-28T02:14:23;1.98;;;1.60;;
51298;SDS011;37382;45.192;9.790;2024-02-28T02:16:50;2.15;;;1.60;;
51298;SDS011;37382;45.192;9.790;2024-02-28T02:19:18;1.88;;;1.30;;
51298;SDS011;37382;45.192;9.790;2024-02-28T02:21:52;2.22;;;1.48;;
51298;SDS011;37382;45.192;9.790;2024-02-28T02:24:21;10.73;;;4.40;;
51298;SDS011;37382;45.192;9.790;2024-02-28T02:26:48;2.78;;;2.10;;
51298;SDS011;37382;45.192;9.790;2024-02-28T02:29:18;1.65;;;1.45;;
51298;SDS011;37382;45.192;9.790;2024-02-28T02:31:45;3.17;;;1.10;;
51298;SDS011;37382;45.192;9.790;2024-02-28T02:34:13;2.88;;;1.20;;
51298;SDS011;37382;45.192;9.790;2024-02-28T02:36:40;1.40;;;1.27;;
51298;SDS011;37382;45.192;9.790;2024-02-28T02:39:08;1.65;;;1.17;;
51298;SDS011;37382;45.192;9.790;2024-02-28T02:41:35;1.67;;;1.30;;
51298;SDS011;37382;45.192;9.790;2024-02-28T02:44:02;2.08;;;1.10;;
51298;SDS011;37382;45.192;9.790;2024-02-28T02:46:30;1.38;;;1.27;;
51298;SDS011;37382;45.192;9.790;2024-02-28T02:48:57;1.40;;;1.00;;
51298;SDS011;37382;45.192;9.790;2024-02-28T02:51:25;1.33;;;1.23;;
51298;SDS011;37382;45.192;9.790;2024-02-28T02:53:52;1.63;;;1.20;;
51298;SDS011;37382;45.192;9.790;2024-02-28T02:56:20;1.50;;;1.10;;
51298;SDS011;37382;45.192;9.790;2024-02-28T02:58:48;2.53;;;1.30;;
51298;SDS011;37382;45.192;9.790;2024-02-28T03:01:15;1.40;;;1.30;;
51298;SDS011;37382;45.192;9.790;2024-02-28T03:03:43;1.25;;;1.10;;
51298;SDS011;37382;45.192;9.790;2024-02-28T03:06:10;2.88;;;1.10;;
51298;SDS011;37382;45.192;9.790;2024-02-28T03:08:38;1.17;;;1.08;;
51298;SDS011;37382;45.192;9.790;2024-02-28T03:11:05;1.00;;;0.95;;
51298;SDS011;37382;45.192;9.790;2024-02-28T03:13:35;3.15;;;1.00;;
51298;SDS011;37382;45.192;9.790;2024-02-28T03:16:03;3.42;;;1.08;;
51298;SDS011;37382;45.192;9.790;2024-02-28T03:18:31;1.27;;;0.80;;
51298;SDS011;37382;45.192;9.790;2024-02-28T03:20:59;3.03;;;0.70;;
51298;SDS011;37382;45.192;9.790;2024-02-28T03:23:26;1.02;;;0.82;;
51298;SDS011;37382;45.192;9.790;2024-02-28T03:25:54;1.05;;;0.60;;
51298;SDS011;37382;45.192;9.790;2024-02-28T03:28:21;0.98;;;0.85;;
51298;SDS011;37382;45.192;9.790;2024-02-28T03:30:48;0.93;;;0.80;;
51298;SDS011;37382;45.192;9.790;2024-02-28T03:33:16;0.80;;;0.80;;
51298;SDS011;37382;45.192;9.790;2024-02-28T03:35:43;1.75;;;0.82;;
51298;SDS011;37382;45.192;9.790;2024-02-28T03:38:11;4.13;;;0.75;;
51298;SDS011;37382;45.192;9.790;2024-02-28T03:40:38;1.08;;;0.90;;
51298;SDS011;37382;45.192;9.790;2024-02-28T03:43:06;1.00;;;0.88;;
51298;SDS011;37382;45.192;9.790;2024-02-28T03:45:36;1.02;;;0.80;;
51298;SDS011;37382;45.192;9.790;2024-02-28T03:48:06;4.80;;;0.90;;
51298;SDS011;37382;45.192;9.790;2024-02-28T03:50:33;6.75;;;1.17;;
51298;SDS011;37382;45.192;9.790;2024-02-28T03:53:00;3.30;;;1.30;;
51298;SDS011;37382;45.192;9.790;2024-02-28T03:55:28;4.35;;;1.50;;
51298;SDS011;37382;45.192;9.790;2024-02-28T03:57:55;7.55;;;1.48;;
51298;SDS011;37382;45.192;9.790;2024-02-28T04:00:23;3.50;;;1.27;;
51298;SDS011;37382;45.192;9.790;2024-02-28T04:02:50;1.38;;;0.98;;
51298;SDS011;37382;45.192;9.790;2024-02-28T04:05:17;2.47;;;1.10;;
51298;SDS011;37382;45.192;9.790;2024-02-28T04:07:45;5.30;;;1.45;;
51298;SDS011;37382;45.192;9.790;2024-02-28T04:10:12;3.72;;;1.27;;
51298;SDS011;37382;45.192;9.790;2024-02-28T04:12:39;6.22;;;1.63;;
51298;SDS011;37382;45.192;9.790;2024-02-28T04:15:12;4.47;;;1.50;;
51298;SDS011;37382;45.192;9.790;2024-02-28T04:17:42;3.97;;;1.38;;
51298;SDS011;37382;45.192;9.790;2024-02-28T04:20:12;2.67;;;1.10;;
51298;SDS011;37382;45.192;9.790;2024-02-28T04:22:40;1.10;;;0.98;;
51298;SDS011;37382;45.192;9.790;2024-02-28T04:25:08;2.75;;;1.10;;
51298;SDS011;37382;45.192;9.790;2024-02-28T04:27:36;1.73;;;1.10;;
51298;SDS011;37382;45.192;9.790;2024-02-28T04:30:04;5.05;;;1.90;;
51298;SDS011;37382;45.192;9.790;2024-02-28T04:32:32;3.95;;;1.58;;
51298;SDS011;37382;45.192;9.790;2024-02-28T04:35:00;4.63;;;1.45;;
51298;SDS011;37382;45.192;9.790;2024-02-28T04:37:27;2.33;;;1.00;;
51298;SDS011;37382;45.192;9.790;2024-02-28T04:39:55;4.35;;;0.88;;
51298;SDS011;37382;45.192;9.790;2024-02-28T04:42:22;1.48;;;0.90;;
51298;SDS011;37382;45.192;9.790;2024-02-28T04:44:50;1.63;;;0.90;;
51298;SDS011;37382;45.192;9.790;2024-02-28T04:47:17;5.25;;;1.00;;
51298;SDS011;37382;45.192;9.790;2024-02-28T04:49:52;1.60;;;0.88;;
51298;SDS011;37382;45.192;9.790;2024-02-28T04:52:19;2.47;;;0.85;;
51298;SDS011;37382;45.192;9.790;2024-02-28T04:54:53;1.08;;;0.95;;
51298;SDS011;37382;45.192;9.790;2024-02-28T04:57:21;1.30;;;0.90;;
51298;SDS011;37382;45.192;9.790;2024-02-28T04:59:48;1.30;;;0.80;;
51298;SDS011;37382;45.192;9.790;2024-02-28T05:02:16;0.80;;;0.70;;
51298;SDS011;37382;45.192;9.790;2024-02-28T05:04:44;0.82;;;0.80;;
51298;SDS011;37382;45.192;9.790;2024-02-28T05:07:12;5.25;;;1.00;;
51298;SDS011;37382;45.192;9.790;2024-02-28T05:09:40;2.17;;;0.77;;
51298;SDS011;37382;45.192;9.790;2024-02-28T05:12:07;1.35;;;0.80;;
51298;SDS011;37382;45.192;9.790;2024-02-28T05:14:35;3.70;;;0.80;;
51298;SDS011;37382;45.192;9.790;2024-02-28T05:17:03;3.47;;;1.00;;
51298;SDS011;37382;45.192;9.790;2024-02-28T05:19:31;1.83;;;1.30;;
51298;SDS011;37382;45.192;9.790;2024-02-28T05:21:58;2.75;;;1.20;;
51298;SDS011;37382;45.192;9.790;2024-02-28T05:24:25;2.97;;;1.20;;
51298;SDS011;37382;45.192;9.790;2024-02-28T05:26:53;5.70;;;1.20;;
51298;SDS011;37382;45.192;9.790;2024-02-28T05:29:20;1.77;;;1.40;;
51298;SDS011;37382;45.192;9.790;2024-02-28T05:31:48;2.67;;;1.52;;
51298;SDS011;37382;45.192;9.790;2024-02-28T05:34:15;2.13;;;1.50;;
51298;SDS011;37382;45.192;9.790;2024-02-28T05:36:43;3.55;;;2.03;;
51298;SDS011;37382;45.192;9.790;2024-02-28T05:39:11;3.28;;;3.00;;
51298;SDS011;37382;45.192;9.790;2024-02-28T05:41:38;4.55;;;3.85;;
51298;SDS011;37382;45.192;9.790;2024-02-28T05:44:06;8.57;;;4.30;;
51298;SDS011;37382;45.192;9.790;2024-02-28T05:46:33;7.43;;;5.07;;
51298;SDS011;37382;45.192;9.790;2024-02-28T05:49:00;5.30;;;4.80;;
51298;SDS011;37382;45.192;9.790;2024-02-28T05:51:28;5.43;;;4.72;;
51298;SDS011;37382;45.192;9.790;2024-02-28T05:53:55;5.43;;;4.30;;
51298;SDS011;37382;45.192;9.790;2024-02-28T05:56:23;4.60;;;4.15;;
51298;SDS011;37382;45.192;9.790;2024-02-28T05:58:50;10.20;;;5.13;;
51298;SDS011;37382;45.192;9.790;2024-02-28T06:01:17;7.75;;;4.75;;
51298;SDS011;37382;45.192;9.790;2024-02-28T06:03:47;7.30;;;5.50;;
51298;SDS011;37382;45.192;9.790;2024-02-28T06:06:15;8.07;;;5.63;;
51298;SDS011;37382;45.192;9.790;2024-02-28T06:08:43;8.65;;;6.55;;
51298;SDS011;37382;45.192;9.790;2024-02-28T06:11:10;9.27;;;6.80;;
51298;SDS011;37382;45.192;9.790;2024-02-28T06:13:40;8.77;;;7.18;;
51298;SDS011;37382;45.192;9.790;2024-02-28T06:16:13;13.07;;;7.85;;
51298;SDS011;37382;45.192;9.790;2024-02-28T06:18:40;11.52;;;8.30;;
51298;SDS011;37382;45.192;9.790;2024-02-28T06:21:08;16.33;;;8.82;;
51298;SDS011;37382;45.192;9.790;2024-02-28T06:23:36;9.98;;;8.98;;
51298;SDS011;37382;45.192;9.790;2024-02-28T06:26:03;9.95;;;9.05;;
51298;SDS011;37382;45.192;9.790;2024-02-28T06:28:30;10.65;;;8.73;;
51298;SDS011;37382;45.192;9.790;2024-02-28T06:30:59;12.20;;;9.15;;
51298;SDS011;37382;45.192;9.790;2024-02-28T06:33:27;10.35;;;9.13;;
51298;SDS011;37382;45.192;9.790;2024-02-28T06:35:54;14.30;;;9.70;;
51298;SDS011;37382;45.192;9.790;2024-02-28T06:38:22;12.80;;;9.80;;
51298;SDS011;37382;45.192;9.790;2024-02-28T06:40:49;15.02;;;9.05;;
51298;SDS011;37382;45.192;9.790;2024-02-28T06:43:16;14.30;;;9.27;;
51298;SDS011;37382;45.192;9.790;2024-02-28T06:45:44;8.40;;;7.55;;
51298;SDS011;37382;45.192;9.790;2024-02-28T06:48:11;12.73;;;7.55;;
51298;SDS011;37382;45.192;9.790;2024-02-28T06:50:39;9.82;;;8.43;;
51298;SDS011;37382;45.192;9.790;2024-02-28T06:53:06;10.68;;;7.97;;
51298;SDS011;37382;45.192;9.790;2024-02-28T06:55:33;8.70;;;6.88;;
51298;SDS011;37382;45.192;9.790;2024-02-28T06:58:01;10.27;;;6.72;;
51298;SDS011;37382;45.192;9.790;2024-02-28T07:00:28;10.23;;;6.47;;
51298;SDS011;37382;45.192;9.790;2024-02-28T07:02:56;8.80;;;6.70;;
51298;SDS011;37382;45.192;9.790;2024-02-28T07:05:23;7.28;;;6.50;;
51298;SDS011;37382;45.192;9.790;2024-02-28T07:07:51;7.65;;;6.72;;
51298;SDS011;37382;45.192;9.790;2024-02-28T07:10:19;9.35;;;7.57;;
51298;SDS011;37382;45.192;9.790;2024-02-28T07:12:46;9.90;;;7.97;;
51298;SDS011;37382;45.192;9.790;2024-02-28T07:15:14;10.73;;;7.68;;
51298;SDS011;37382;45.192;9.790;2024-02-28T07:17:41;11.95;;;7.97;;
51298;SDS011;37382;45.192;9.790;2024-02-28T07:20:09;11.65;;;8.73;;
51298;SDS011;37382;45.192;9.790;2024-02-28T07:22:37;11.32;;;9.32;;
51298;SDS011;37382;45.192;9.790;2024-02-28T07:25:05;16.85;;;9.75;;
51298;SDS011;37382;45.192;9.790;2024-02-28T07:27:34;11.75;;;10.50;;
51298;SDS011;37382;45.192;9.790;2024-02-28T07:30:02;12.48;;;9.77;;
51298;SDS011;37382;45.192;9.790;2024-02-28T07:32:33;10.90;;;9.57;;
51298;SDS011;37382;45.192;9.790;2024-02-28T07:35:02;14.00;;;10.20;;
51298;SDS011;37382;45.192;9.790;2024-02-28T07:37:30;10.48;;;9.38;;
51298;SDS011;37382;45.192;9.790;2024-02-28T07:39:57;22.73;;;12.63;;
51298;SDS011;37382;45.192;9.790;2024-02-28T07:42:25;11.65;;;9.73;;
51298;SDS011;37382;45.192;9.790;2024-02-28T07:44:52;15.02;;;10.50;;
51298;SDS011;37382;45.192;9.790;2024-02-28T07:47:23;10.82;;;8.65;;
51298;SDS011;37382;45.192;9.790;2024-02-28T07:49:51;16.23;;;8.68;;
51298;SDS011;37382;45.192;9.790;2024-02-28T07:52:19;11.02;;;7.20;;
51298;SDS011;37382;45.192;9.790;2024-02-28T07:54:47;13.07;;;8.55;;
51298;SDS011;37382;45.192;9.790;2024-02-28T07:57:14;16.23;;;10.18;;
51298;SDS011;37382;45.192;9.790;2024-02-28T07:59:42;13.82;;;9.70;;
51298;SDS011;37382;45.192;9.790;2024-02-28T08:02:10;24.52;;;11.15;;
51298;SDS011;37382;45.192;9.790;2024-02-28T08:04:40;17.40;;;10.80;;
51298;SDS011;37382;45.192;9.790;2024-02-28T08:07:08;13.45;;;8.98;;
51298;SDS011;37382;45.192;9.790;2024-02-28T08:09:35;13.27;;;8.88;;
51298;SDS011;37382;45.192;9.790;2024-02-28T08:12:03;16.20;;;10.50;;
51298;SDS011;37382;45.192;9.790;2024-02-28T08:14:30;16.83;;;9.57;;
51298;SDS011;37382;45.192;9.790;2024-02-28T08:16:57;13.50;;;10.10;;
51298;SDS011;37382;45.192;9.790;2024-02-28T08:19:25;13.63;;;8.68;;
51298;SDS011;37382;45.192;9.790;2024-02-28T08:21:53;11.93;;;8.60;;
51298;SDS011;37382;45.192;9.790;2024-02-28T08:24:21;13.75;;;9.23;;
51298;SDS011;37382;45.192;9.790;2024-02-28T08:26:48;20.00;;;8.27;;
51298;SDS011;37382;45.192;9.790;2024-02-28T08:29:16;10.13;;;7.70;;
51298;SDS011;37382;45.192;9.790;2024-02-28T08:31:43;9.10;;;7.95;;
51298;SDS011;37382;45.192;9.790;2024-02-28T08:34:11;13.88;;;9.10;;
51298;SDS011;37382;45.192;9.790;2024-02-28T08:36:39;10.63;;;8.98;;
51298;SDS011;37382;45.192;9.790;2024-02-28T08:39:06;12.43;;;9.57;;
51298;SDS011;37382;45.192;9.790;2024-02-28T08:41:36;16.75;;;11.00;;
51298;SDS011;37382;45.192;9.790;2024-02-28T08:44:04;13.20;;;10.15;;
51298;SDS011;37382;45.192;9.790;2024-02-28T08:46:31;13.50;;;9.07;;
51298;SDS011;37382;45.192;9.790;2024-02-28T08:48:59;12.85;;;9.95;;
51298;SDS011;37382;45.192;9.790;2024-02-28T08:51:26;13.13;;;7.57;;
51298;SDS011;37382;45.192;9.790;2024-02-28T08:53:54;7.32;;;4.47;;
51298;SDS011;37382;45.192;9.790;2024-02-28T08:56:22;4.53;;;3.95;;
51298;SDS011;37382;45.192;9.790;2024-02-28T08:58:50;3.50;;;3.20;;
51298;SDS011;37382;45.192;9.790;2024-02-28T09:01:17;4.47;;;3.10;;
51298;SDS011;37382;45.192;9.790;2024-02-28T09:03:45;6.80;;;4.32;;
51298;SDS011;37382;45.192;9.790;2024-02-28T09:06:12;4.22;;;3.20;;
51298;SDS011;37382;45.192;9.790;2024-02-28T09:08:40;7.88;;;3.42;;
51298;SDS011;37382;45.192;9.790;2024-02-28T09:11:07;3.80;;;3.38;;
51298;SDS011;37382;45.192;9.790;2024-02-28T09:13:35;8.05;;;3.03;;
51298;SDS011;37382;45.192;9.790;2024-02-28T09:16:02;7.35;;;2.92;;
51298;SDS011;37382;45.192;9.790;2024-02-28T09:18:31;4.63;;;3.40;;
51298;SDS011;37382;45.192;9.790;2024-02-28T09:20:58;4.45;;;3.60;;
51298;SDS011;37382;45.192;9.790;2024-02-28T09:23:25;4.22;;;3.13;;
51298;SDS011;37382;45.192;9.790;2024-02-28T09:25:53;7.43;;;2.83;;
51298;SDS011;37382;45.192;9.790;2024-02-28T09:28:20;7.18;;;3.70;;
51298;SDS011;37382;45.192;9.790;2024-02-28T09:30:48;4.15;;;2.80;;
51298;SDS011;37382;45.192;9.790;2024-02-28T09:33:19;6.90;;;2.80;;
51298;SDS011;37382;45.192;9.790;2024-02-28T09:35:47;7.53;;;2.90;;
51298;SDS011;37382;45.192;9.790;2024-02-28T09:38:15;4.32;;;2.88;;
51298;SDS011;37382;45.192;9.790;2024-02-28T09:40:46;7.45;;;4.10;;
51298;SDS011;37382;45.192;9.790;2024-02-28T09:43:22;5.80;;;3.60;;
51298;SDS011;37382;45.192;9.790;2024-02-28T09:45:58;6.85;;;4.35;;
51298;SDS011;37382;45.192;9.790;2024-02-28T09:48:28;11.02;;;4.78;;
51298;SDS011;37382;45.192;9.790;2024-02-28T09:50:57;7.65;;;4.18;;
51298;SDS011;37382;45.192;9.790;2024-02-28T09:53:25;6.97;;;4.88;;
51298;SDS011;37382;45.192;9.790;2024-02-28T09:55:53;11.55;;;4.53;;
51298;SDS011;37382;45.192;9.790;2024-02-28T09:58:20;9.30;;;5.28;;
51298;SDS011;37382;45.192;9.790;2024-02-28T10:00:48;11.38;;;7.30;;
51298;SDS011;37382;45.192;9.790;2024-02-28T10:03:17;15.73;;;7.80;;
51298;SDS011;37382;45.192;9.790;2024-02-28T10:08:15;11.20;;;5.32;;
51298;SDS011;37382;45.192;9.790;2024-02-28T10:10:46;5.60;;;5.03;;
51298;SDS011;37382;45.192;9.790;2024-02-28T10:13:15;15.73;;;4.97;;
51298;SDS011;37382;45.192;9.790;2024-02-28T10:15:43;11.40;;;5.50;;
51298;SDS011;37382;45.192;9.790;2024-02-28T10:18:11;7.70;;;4.63;;
51298;SDS011;37382;45.192;9.790;2024-02-28T10:20:39;7.55;;;4.68;;
51298;SDS011;37382;45.192;9.790;2024-02-28T10:23:06;6.88;;;4.88;;
51298;SDS011;37382;45.192;9.790;2024-02-28T10:25:42;6.40;;;4.75;;
51298;SDS011;37382;45.192;9.790;2024-02-28T10:28:23;12.60;;;5.50;;
51298;SDS011;37382;45.192;9.790;2024-02-28T10:30:51;6.00;;;5.40;;
51298;SDS011;37382;45.192;9.790;2024-02-28T10:33:20;6.93;;;5.25;;
51298;SDS011;37382;45.192;9.790;2024-02-28T10:35:50;15.40;;;6.10;;
51298;SDS011;37382;45.192;9.790;2024-02-28T10:38:21;11.93;;;6.15;;
51298;SDS011;37382;45.192;9.790;2024-02-28T10:40:49;11.98;;;6.03;;
51298;SDS011;37382;45.192;9.790;2024-02-28T10:43:18;8.18;;;5.80;;
51298;SDS011;37382;45.192;9.790;2024-02-28T10:45:47;8.77;;;6.03;;
51298;SDS011;37382;45.192;9.790;2024-02-28T10:48:35;7.90;;;6.28;;
51298;SDS011;37382;45.192;9.790;2024-02-28T10:51:03;9.75;;;6.50;;
51298;SDS011;37382;45.192;9.790;2024-02-28T10:53:41;8.82;;;5.80;;
51298;SDS011;37382;45.192;9.790;2024-02-28T10:56:11;11.18;;;7.45;;
51298;SDS011;37382;45.192;9.790;2024-02-28T10:58:43;7.80;;;6.30;;
51298;SDS011;37382;45.192;9.790;2024-02-28T11:01:18;10.77;;;7.40;;
51298;SDS011;37382;45.192;9.790;2024-02-28T11:03:48;9.05;;;6.60;;
51298;SDS011;37382;45.192;9.790;2024-02-28T11:06:17;12.07;;;7.45;;
51298;SDS011;37382;45.192;9.790;2024-02-28T11:08:48;12.45;;;8.02;;
51298;SDS011;37382;45.192;9.790;2024-02-28T11:11:20;16.83;;;11.48;;
51298;SDS011;37382;45.192;9.790;2024-02-28T11:13:55;25.13;;;16.10;;
51298;SDS011;37382;45.192;9.790;2024-02-28T11:16:33;11.90;;;8.75;;
51298;SDS011;37382;45.192;9.790;2024-02-28T11:19:01;21.70;;;13.50;;
51298;SDS011;37382;45.192;9.790;2024-02-28T11:21:33;24.55;;;16.10;;
51298;SDS011;37382;45.192;9.790;2024-02-28T11:26:30;13.32;;;8.85;;
51298;SDS011;37382;45.192;9.790;2024-02-28T11:28:58;12.98;;;10.43;;
51298;SDS011;37382;45.192;9.790;2024-02-28T11:31:25;10.95;;;7.78;;
51298;SDS011;37382;45.192;9.790;2024-02-28T11:33:53;12.38;;;7.85;;
51298;SDS011;37382;45.192;9.790;2024-02-28T11:36:21;9.77;;;8.57;;
51298;SDS011;37382;45.192;9.790;2024-02-28T11:38:49;11.25;;;9.07;;
51298;SDS011;37382;45.192;9.790;2024-02-28T11:41:26;15.55;;;9.75;;
51298;SDS011;37382;45.192;9.790;2024-02-28T11:43:57;13.05;;;8.73;;
51298;SDS011;37382;45.192;9.790;2024-02-28T11:46:25;14.90;;;8.40;;
51298;SDS011;37382;45.192;9.790;2024-02-28T11:48:53;11.77;;;8.88;;
51298;SDS011;37382;45.192;9.790;2024-02-28T11:51:23;10.35;;;8.57;;
51298;SDS011;37382;45.192;9.790;2024-02-28T11:53:50;11.80;;;9.13;;
51298;SDS011;37382;45.192;9.790;2024-02-28T11:56:18;12.13;;;10.05;;
51298;SDS011;37382;45.192;9.790;2024-02-28T11:58:51;10.68;;;8.77;;
51298;SDS011;37382;45.192;9.790;2024-02-28T12:01:20;12.50;;;8.82;;
51298;SDS011;37382;45.192;9.790;2024-02-28T12:04:02;18.27;;;8.68;;
51298;SDS011;37382;45.192;9.790;2024-02-28T12:06:32;11.65;;;8.70;;
51298;SDS011;37382;45.192;9.790;2024-02-28T12:09:07;14.55;;;10.30;;
51298;SDS011;37382;45.192;9.790;2024-02-28T12:11:37;12.30;;;10.18;;
51298;SDS011;37382;45.192;9.790;2024-02-28T12:14:08;11.80;;;8.38;;
51298;SDS011;37382;45.192;9.790;2024-02-28T12:16:37;10.48;;;8.15;;
51298;SDS011;37382;45.192;9.790;2024-02-28T12:19:11;11.20;;;7.70;;
51298;SDS011;37382;45.192;9.790;2024-02-28T12:21:40;9.80;;;7.25;;
51298;SDS011;37382;45.192;9.790;2024-02-28T12:24:08;9.80;;;7.45;;
51298;SDS011;37382;45.192;9.790;2024-02-28T12:26:39;7.55;;;6.57;;
51298;SDS011;37382;45.192;9.790;2024-02-28T12:29:07;12.80;;;7.75;;
51298;SDS011;37382;45.192;9.790;2024-02-28T12:31:36;10.35;;;7.53;;
51298;SDS011;37382;45.192;9.790;2024-02-28T12:34:04;8.85;;;7.25;;
51298;SDS011;37382;45.192;9.790;2024-02-28T12:36:36;8.30;;;7.05;;
51298;SDS011;37382;45.192;9.790;2024-02-28T12:39:03;10.48;;;7.50;;
51298;SDS011;37382;45.192;9.790;2024-02-28T12:41:33;8.15;;;6.72;;
51298;SDS011;37382;45.192;9.790;2024-02-28T12:44:00;11.50;;;6.82;;
51298;SDS011;37382;45.192;9.790;2024-02-28T12:46:27;9.32;;;6.65;;
51298;SDS011;37382;45.192;9.790;2024-02-28T12:48:55;10.20;;;7.30;;
51298;SDS011;37382;45.192;9.790;2024-02-28T12:54:12;8.43;;;7.30;;
51298;SDS011;37382;45.192;9.790;2024-02-28T12:56:42;9.40;;;7.50;;
51298;SDS011;37382;45.192;9.790;2024-02-28T12:59:10;8.23;;;7.13;;
51298;SDS011;37382;45.192;9.790;2024-02-28T13:01:38;8.30;;;7.50;;
51298;SDS011;37382;45.192;9.790;2024-02-28T13:04:07;10.57;;;8.38;;
51298;SDS011;37382;45.192;9.790;2024-02-28T13:06:35;11.45;;;8.38;;
51298;SDS011;37382;45.192;9.790;2024-02-28T13:09:02;10.02;;;7.13;;
51298;SDS011;37382;45.192;9.790;2024-02-28T13:11:30;7.22;;;6.45;;
51298;SDS011;37382;45.192;9.790;2024-02-28T13:13:58;11.27;;;8.13;;
51298;SDS011;37382;45.192;9.790;2024-02-28T13:16:25;10.88;;;8.68;;
51298;SDS011;37382;45.192;9.790;2024-02-28T13:18:53;15.07;;;9.27;;
51298;SDS011;37382;45.192;9.790;2024-02-28T13:21:21;11.95;;;8.63;;
51298;SDS011;37382;45.192;9.790;2024-02-28T13:23:48;14.57;;;8.43;;
51298;SDS011;37382;45.192;9.790;2024-02-28T13:26:16;13.40;;;8.48;;
51298;SDS011;37382;45.192;9.790;2024-02-28T13:28:47;12.68;;;9.20;;
51298;SDS011;37382;45.192;9.790;2024-02-28T13:31:20;11.32;;;9.02;;
51298;SDS011;37382;45.192;9.790;2024-02-28T13:33:48;11.68;;;7.72;;
51298;SDS011;37382;45.192;9.790;2024-02-28T13:36:16;16.73;;;8.70;;
51298;SDS011;37382;45.192;9.790;2024-02-28T13:38:44;9.60;;;8.40;;
51298;SDS011;37382;45.192;9.790;2024-02-28T13:41:13;12.90;;;8.20;;
51298;SDS011;37382;45.192;9.790;2024-02-28T13:43:41;14.98;;;9.63;;
51298;SDS011;37382;45.192;9.790;2024-02-28T13:46:08;11.40;;;9.32;;
51298;SDS011;37382;45.192;9.790;2024-02-28T13:48:37;15.77;;;9.32;;
51298;SDS011;37382;45.192;9.790;2024-02-28T13:51:05;17.35;;;10.98;;
51298;SDS011;37382;45.192;9.790;2024-02-28T13:53:32;14.73;;;9.93;;
51298;SDS011;37382;45.192;9.790;2024-02-28T13:55:59;14.48;;;9.73;;
51298;SDS011;37382;45.192;9.790;2024-02-28T13:58:27;12.23;;;8.45;;
51298;SDS011;37382;45.192;9.790;2024-02-28T14:01:06;13.80;;;8.32;;
51298;SDS011;37382;45.192;9.790;2024-02-28T14:03:34;9.75;;;8.13;;
51298;SDS011;37382;45.192;9.790;2024-02-28T14:06:01;10.75;;;8.65;;
51298;SDS011;37382;45.192;9.790;2024-02-28T14:08:29;9.98;;;7.93;;
51298;SDS011;37382;45.192;9.790;2024-02-28T14:11:02;9.40;;;7.90;;
51298;SDS011;37382;45.192;9.790;2024-02-28T14:13:30;9.38;;;7.82;;
51298;SDS011;37382;45.192;9.790;2024-02-28T14:15:57;10.50;;;6.43;;
51298;SDS011;37382;45.192;9.790;2024-02-28T14:18:25;7.80;;;4.78;;
51298;SDS011;37382;45.192;9.790;2024-02-28T14:20:52;10.50;;;6.38;;
51298;SDS011;37382;45.192;9.790;2024-02-28T14:23:20;8.43;;;5.93;;
51298;SDS011;37382;45.192;9.790;2024-02-28T14:25:48;11.38;;;8.65;;
51298;SDS011;37382;45.192;9.790;2024-02-28T14:28:16;13.93;;;9.82;;
51298;SDS011;37382;45.192;9.790;2024-02-28T14:30:46;8.65;;;5.50;;
51298;SDS011;37382;45.192;9.790;2024-02-28T14:33:16;12.95;;;7.78;;
51298;SDS011;37382;45.192;9.790;2024-02-28T14:35:44;13.02;;;7.85;;
51298;SDS011;37382;45.192;9.790;2024-02-28T14:38:12;8.23;;;7.05;;
51298;SDS011;37382;45.192;9.790;2024-02-28T14:40:39;8.85;;;6.43;;
51298;SDS011;37382;45.192;9.790;2024-02-28T14:43:07;19.42;;;9.52;;
51298;SDS011;37382;45.192;9.790;2024-02-28T14:45:35;16.40;;;8.90;;
51298;SDS011;37382;45.192;9.790;2024-02-28T14:48:06;8.38;;;7.20;;
51298;SDS011;37382;45.192;9.790;2024-02-28T14:50:34;7.20;;;5.18;;
51298;SDS011;37382;45.192;9.790;2024-02-28T14:53:02;5.78;;;5.18;;
51298;SDS011;37382;45.192;9.790;2024-02-28T14:55:30;9.10;;;5.40;;
51298;SDS011;37382;45.192;9.790;2024-02-28T14:57:58;11.65;;;5.60;;